Time;durP1;ratioP1;P1;durP2;ratioP2;P2;SDS_P1;SDS_P2;PMS_P1;PMS_P2;Temp;Humidity;BMP_temperature;BMP_pressure;BME280_temperature;BME280_humidity;BME280_pressure;Samples;Min_cycle;Max_cycle;Signal;HPM_P1;HPM_P2
2021/01/07 00:01:59;;;;;;;14.15;12.75;;;;;;;0.64;72.39;99541.75;10388073;28;20108;-66
2021/01/07 00:07:01;;;;;;;14.00;12.60;;;;;;;0.70;71.89;99546.03;10386811;28;20038;-66
2021/01/07 00:12:02;;;;;;;14.43;13.23;;;;;;;0.47;72.57;99548.63;10386374;28;20050;-65
2021/01/07 00:17:04;;;;;;;14.13;12.93;;;;;;;0.52;72.51;99543.44;10388182;28;20048;-65
2021/01/07 00:22:05;;;;;;;16.30;14.90;;;;;;;0.55;72.32;99535.72;10388061;28;20072;-66
2021/01/07 00:27:06;;;;;;;16.33;14.93;;;;;;;0.58;72.55;99536.56;10385429;28;20034;-66
2021/01/07 00:32:07;;;;;;;16.85;15.45;;;;;;;0.70;72.10;99536.56;10383777;28;20050;-66
2021/01/07 00:37:08;;;;;;;16.27;14.68;;;;;;;0.70;72.00;99533.09;10384004;28;20058;-66
2021/01/07 00:42:10;;;;;;;17.15;15.65;;;;;;;0.69;71.59;99533.97;10383802;28;20139;-66
2021/01/07 00:47:11;;;;;;;17.23;15.80;;;;;;;0.66;71.97;99533.97;10382944;28;20415;-65
2021/01/07 00:52:13;;;;;;;18.88;17.17;;;;;;;0.72;71.87;99532.25;10397254;28;20042;-67
2021/01/07 00:57:15;;;;;;;17.70;16.10;;;;;;;0.74;71.37;99525.34;10396971;28;20038;-65
2021/01/07 01:02:18;;;;;;;18.73;17.02;;;;;;;0.60;72.04;99524.50;10383482;28;20476;-66
2021/01/07 01:07:19;;;;;;;18.67;17.17;;;;;;;0.64;71.98;99521.03;10383270;28;20042;-67
2021/01/07 01:12:21;;;;;;;16.45;15.15;;;;;;;0.68;71.69;99535.72;10383646;28;20045;-68
2021/01/07 01:17:22;;;;;;;18.02;16.27;;;;;;;0.71;71.49;99533.13;10381523;28;20038;-66
2021/01/07 01:22:29;;;;;;;18.60;17.00;;;;;;;0.69;71.70;99547.78;10380709;28;20073;-66
2021/01/07 01:27:30;;;;;;;15.07;13.88;;;;;;;0.72;71.45;99544.34;10382142;28;20096;-66
2021/01/07 01:32:34;;;;;;;15.88;14.57;;;;;;;0.77;71.28;99545.19;10380908;28;20041;-66
2021/01/07 01:37:39;;;;;;;15.98;14.68;;;;;;;0.84;71.30;99546.94;10380948;28;20041;-66
2021/01/07 01:42:40;;;;;;;15.10;13.80;;;;;;;0.96;70.63;99544.31;10381290;28;20049;-65
2021/01/07 01:47:42;;;;;;;15.20;14.07;;;;;;;0.80;71.30;99539.13;10381428;28;20042;-66
2021/01/07 01:52:43;;;;;;;14.32;13.20;;;;;;;0.90;70.92;99546.06;10380880;28;20096;-66
2021/01/07 01:57:46;;;;;;;14.65;13.40;;;;;;;0.85;70.82;99540.03;10379706;28;20069;-66
2021/01/07 02:02:47;;;;;;;16.42;15.02;;;;;;;0.82;70.86;99545.19;10380755;28;20415;-67
2021/01/07 02:07:50;;;;;;;15.80;14.60;;;;;;;0.84;71.08;99544.34;10380222;28;20038;-67
2021/01/07 02:12:57;;;;;;;15.20;13.80;;;;;;;0.78;71.00;99543.47;10380115;28;20122;-66
2021/01/07 02:17:58;;;;;;;15.52;14.32;;;;;;;0.63;71.45;99539.16;10380201;28;20046;-67
2021/01/07 02:22:59;;;;;;;15.40;14.10;;;;;;;0.79;71.50;99533.09;10379470;28;20100;-67
2021/01/07 02:28:02;;;;;;;15.60;14.20;;;;;;;0.89;70.72;99528.81;10378912;28;20572;-66
2021/01/07 02:33:03;;;;;;;15.50;14.20;;;;;;;0.59;71.72;99529.69;10377134;28;20501;-66
2021/01/07 02:38:04;;;;;;;16.65;15.35;;;;;;;0.68;71.46;99527.09;10378384;28;20496;-64
2021/01/07 02:43:06;;;;;;;17.52;16.02;;;;;;;0.59;72.04;99519.34;10378409;28;20072;-66
2021/01/07 02:48:07;;;;;;;16.83;15.32;;;;;;;0.72;71.61;99524.50;10378713;28;20100;-66
2021/01/07 02:53:08;;;;;;;17.52;16.02;;;;;;;0.89;71.02;99515.88;10377706;28;20042;-65
2021/01/07 02:58:09;;;;;;;16.98;15.57;;;;;;;0.80;71.21;99528.78;10376747;28;20038;-66
2021/01/07 03:03:10;;;;;;;15.43;14.15;;;;;;;0.84;71.12;99525.34;10376405;28;20049;-65
2021/01/07 03:08:11;;;;;;;16.33;15.02;;;;;;;0.92;70.27;99531.38;10377245;28;20472;-65
2021/01/07 03:13:13;;;;;;;16.27;14.98;;;;;;;0.91;70.13;99527.06;10377898;28;20423;-65
2021/01/07 03:18:14;;;;;;;15.55;14.35;;;;;;;0.86;70.29;99537.44;10377087;28;20126;-65
2021/01/07 03:23:16;;;;;;;16.73;15.25;;;;;;;0.80;70.73;99541.72;10377022;28;20092;-65
2021/01/07 03:28:17;;;;;;;16.92;15.43;;;;;;;0.84;70.66;99538.28;10377625;28;20109;-65
2021/01/07 03:33:19;;;;;;;15.55;14.32;;;;;;;0.88;70.00;99535.69;10375696;28;20050;-66
2021/01/07 03:38:21;;;;;;;15.13;13.93;;;;;;;0.86;70.02;99528.81;10376615;28;20050;-64
2021/01/07 03:43:22;;;;;;;15.35;14.05;;;;;;;0.92;69.46;99527.06;10377637;28;20049;-64
2021/01/07 03:48:23;;;;;;;16.25;14.63;;;;;;;0.70;70.15;99531.38;10375442;28;20072;-65
2021/01/07 03:53:24;;;;;;;16.60;15.10;;;;;;;0.67;70.32;99528.81;10377071;28;20100;-66
2021/01/07 03:58:26;;;;;;;15.48;13.88;;;;;;;0.82;69.78;99530.53;10376346;28;20038;-65
2021/01/07 04:03:27;;;;;;;14.65;13.45;;;;;;;0.82;69.50;99532.25;10377113;28;20049;-64
2021/01/07 04:08:28;;;;;;;15.68;14.38;;;;;;;0.67;69.42;99527.97;10375891;28;20093;-64
2021/01/07 04:13:30;;;;;;;15.18;13.88;;;;;;;0.68;70.29;99527.09;10375824;28;20500;-66
2021/01/07 04:18:31;;;;;;;14.63;13.43;;;;;;;0.79;69.08;99520.16;10375431;28;20108;-66
2021/01/07 04:23:33;;;;;;;14.35;13.15;;;;;;;0.72;69.15;99528.81;10382030;28;20037;-64
2021/01/07 04:28:34;;;;;;;14.85;13.65;;;;;;;0.71;69.61;99529.69;10383372;28;20038;-66
2021/01/07 04:33:35;;;;;;;15.18;13.88;;;;;;;0.59;69.92;99525.38;10382701;28;20579;-65
2021/01/07 04:38:37;;;;;;;16.17;14.80;;;;;;;0.79;69.10;99525.34;10382760;28;20080;-66
2021/01/07 04:43:38;;;;;;;15.25;13.95;;;;;;;0.67;70.05;99531.41;10383466;28;20046;-66
2021/01/07 04:48:40;;;;;;;16.50;15.10;;;;;;;0.69;69.93;99532.25;10381442;28;20041;-64
2021/01/07 04:53:41;;;;;;;16.58;15.18;;;;;;;0.77;69.94;99523.63;10381329;28;20041;-65
2021/01/07 04:58:43;;;;;;;15.35;14.15;;;;;;;0.58;70.22;99527.97;10380640;28;20120;-64
2021/01/07 05:03:46;;;;;;;16.02;14.63;;;;;;;0.73;69.88;99522.78;10381041;28;20056;-64
2021/01/07 05:08:55;;;;;;;16.70;15.05;;;;;;;0.72;69.91;99526.22;10378888;28;20072;-63
2021/01/07 05:14:00;;;;;;;16.02;14.38;;;;;;;0.78;69.32;99533.13;10380564;28;20111;-64
2021/01/07 05:19:04;;;;;;;14.88;13.57;;;;;;;0.68;68.82;99529.69;10379746;28;20119;-63
2021/01/07 05:24:06;;;;;;;14.95;12.52;;;;;;;0.70;68.52;99533.97;10379990;28;20085;-64
2021/01/07 05:29:08;;;;;;;13.73;12.45;;;;;;;0.62;68.94;99532.25;10379533;28;20513;-64
2021/01/07 05:34:13;;;;;;;13.63;12.43;;;;;;;0.56;68.82;99533.09;10378926;28;20392;-65
2021/01/07 05:39:14;;;;;;;13.32;12.23;;;;;;;0.63;68.06;99523.66;10377139;28;20050;-65
2021/01/07 05:44:15;;;;;;;12.73;11.63;;;;;;;0.63;68.08;99511.56;10377854;28;20133;-63
2021/01/07 05:49:20;;;;;;;13.93;12.80;;;;;;;0.60;67.78;99523.63;10378538;28;20101;-63
2021/01/07 05:54:22;;;;;;;13.35;12.15;;;;;;;0.57;67.81;99521.91;10378613;28;20084;-65
2021/01/07 05:59:25;;;;;;;14.23;12.57;;;;;;;0.53;68.30;99521.91;10378311;28;20510;-65
2021/01/07 06:04:28;;;;;;;11.30;10.25;;;;;;;0.40;67.76;99532.25;10378713;28;20053;-65
2021/01/07 06:09:30;;;;;;;17.35;15.20;;;;;;;0.32;68.19;99541.72;10378505;28;20069;-64
2021/01/07 06:14:32;;;;;;;13.63;11.40;;;;;;;0.28;68.79;99552.06;10378463;28;20432;-65
2021/01/07 06:19:37;;;;;;;13.30;12.10;;;;;;;0.25;69.07;99555.47;10376788;28;20046;-65
2021/01/07 06:24:40;;;;;;;12.00;11.00;;;;;;;0.61;67.99;99556.38;10375885;28;20060;-67
2021/01/07 06:29:41;;;;;;;15.35;14.05;;;;;;;0.40;68.91;99552.94;10376694;28;20052;-67
2021/01/07 06:34:46;;;;;;;14.98;13.43;;;;;;;0.44;69.01;99557.25;10376159;28;20050;-66
2021/01/07 06:39:48;;;;;;;14.45;13.15;;;;;;;0.68;68.05;99555.53;10376342;28;20042;-66
2021/01/07 06:44:52;;;;;;;13.88;12.68;;;;;;;0.67;68.05;99566.75;10375559;28;20073;-66
2021/01/07 06:49:54;;;;;;;15.10;13.80;;;;;;;0.72;67.95;99557.28;10375778;28;20175;-65
2021/01/07 06:54:55;;;;;;;15.93;14.52;;;;;;;0.69;68.20;99572.78;10374725;28;20126;-66
2021/01/07 07:00:03;;;;;;;15.32;13.93;;;;;;;0.54;69.28;99573.63;10375658;28;20045;-65
2021/01/07 07:05:14;;;;;;;16.95;15.45;;;;;;;0.62;68.83;99581.38;10375776;28;20064;-66
2021/01/07 07:10:18;;;;;;;15.68;14.30;;;;;;;0.50;68.94;99584.84;10376047;28;20038;-65
2021/01/07 07:15:24;;;;;;;17.35;15.50;;;;;;;0.61;68.64;99592.59;10375526;28;20050;-66
2021/01/07 07:20:25;;;;;;;16.45;14.95;;;;;;;0.65;68.38;99582.25;10376207;28;20550;-65
2021/01/07 07:25:27;;;;;;;15.55;14.25;;;;;;;0.57;68.84;99593.44;10376115;28;20050;-65
2021/01/07 07:30:33;;;;;;;17.42;15.93;;;;;;;0.63;68.55;99593.47;10376183;28;20049;-64
2021/01/07 07:35:42;;;;;;;16.05;14.75;;;;;;;0.53;68.86;99599.47;10376560;28;20074;-66
2021/01/07 07:40:50;;;;;;;15.45;14.15;;;;;;;0.44;69.19;99601.22;10375721;28;20102;-66
2021/01/07 07:45:52;;;;;;;15.10;13.70;;;;;;;0.61;68.44;99608.97;10376482;28;20038;-66
2021/01/07 07:51:23;;;;;;;15.32;13.93;;;;;;;0.57;68.65;99609.81;10375586;28;20050;-67
2021/01/07 07:56:24;;;;;;;16.02;14.57;;;;;;;0.54;68.35;99612.44;10334153;28;20115;-67
2021/01/07 08:01:49;;;;;;;15.02;13.77;;;;;;;0.67;68.02;99609.00;10338174;28;20133;-67
2021/01/07 08:06:54;;;;;;;14.80;13.60;;;;;;;0.65;68.27;99615.88;10338409;28;20130;-66
2021/01/07 08:11:55;;;;;;;14.68;13.30;;;;;;;0.62;68.41;99613.31;10338031;28;20141;-67
2021/01/07 08:16:58;;;;;;;13.35;12.25;;;;;;;0.65;67.84;99612.44;10337510;28;20055;-66
2021/01/07 08:22:00;;;;;;;13.57;12.25;;;;;;;0.49;68.37;99616.75;10336763;28;20394;-66
2021/01/07 08:27:21;;;;;;;14.85;13.60;;;;;;;0.59;68.52;99620.19;10337111;28;20042;-66
2021/01/07 08:32:30;;;;;;;13.18;12.07;;;;;;;0.67;68.03;99621.09;10367767;28;20062;-66
2021/01/07 08:37:33;;;;;;;12.90;11.80;;;;;;;0.61;67.29;99623.63;10410522;22;20045;-64
2021/01/07 08:42:38;;;;;;;12.00;10.93;;;;;;;0.62;68.03;99634.00;10418605;28;20052;-63
2021/01/07 08:47:40;;;;;;;12.88;11.68;;;;;;;0.72;67.43;99632.28;10419696;28;20533;-63
2021/01/07 08:52:48;;;;;;;12.60;11.50;;;;;;;0.65;67.97;99633.13;10419932;28;20121;-63
2021/01/07 08:57:49;;;;;;;13.02;11.70;;;;;;;0.71;67.84;99631.44;10418089;28;20077;-64
2021/01/07 09:03:00;;;;;;;12.90;11.65;;;;;;;0.55;68.86;99634.84;10417518;28;20517;-63
2021/01/07 09:08:08;;;;;;;13.55;12.15;;;;;;;0.59;68.80;99626.22;10419214;28;20545;-64
2021/01/07 09:13:15;;;;;;;12.60;11.50;;;;;;;0.79;67.56;99634.00;10418531;28;20101;-64
2021/01/07 09:18:18;;;;;;;13.50;12.30;;;;;;;0.69;67.98;99637.44;10419022;28;20048;-64
2021/01/07 09:23:19;;;;;;;11.98;10.80;;;;;;;0.73;67.57;99634.88;10417928;28;20458;-64
2021/01/07 09:28:20;;;;;;;15.10;13.80;;;;;;;0.67;68.77;99640.03;10417880;28;20084;-64
2021/01/07 09:33:22;;;;;;;12.25;11.25;;;;;;;0.93;67.52;99634.00;10417133;28;20417;-66
2021/01/07 09:38:24;;;;;;;13.55;12.32;;;;;;;0.81;67.59;99634.88;10399261;28;575789;-64
2021/01/07 09:43:25;;;;;;;11.68;10.68;;;;;;;0.98;67.39;99629.72;10419549;28;20223;-65
2021/01/07 09:48:26;;;;;;;13.30;12.10;;;;;;;0.93;67.87;99626.25;10420273;28;20064;-65
2021/01/07 09:53:27;;;;;;;11.77;10.82;;;;;;;0.95;67.48;99625.41;10420469;28;20120;-65
2021/01/07 09:58:28;;;;;;;13.32;12.13;;;;;;;1.17;67.01;99618.50;10419786;28;20041;-65
2021/01/07 10:03:30;;;;;;;11.80;10.80;;;;;;;1.15;66.86;99615.06;10419366;28;20041;-65
2021/01/07 10:08:32;;;;;;;11.98;10.98;;;;;;;1.25;66.48;99614.19;10418322;28;20495;-65
2021/01/07 10:13:33;;;;;;;12.38;11.32;;;;;;;0.94;67.67;99617.66;10420552;28;20052;-65
2021/01/07 10:18:34;;;;;;;11.80;10.80;;;;;;;1.42;65.99;99600.38;10420230;28;20045;-65
2021/01/07 10:23:41;;;;;;;12.45;11.45;;;;;;;1.40;65.37;99597.75;10420835;28;20048;-65
2021/01/07 10:28:45;;;;;;;12.82;11.73;;;;;;;1.20;66.66;99604.72;10419978;28;20124;-64
2021/01/07 10:33:47;;;;;;;11.40;10.40;;;;;;;1.26;66.67;99602.09;10421572;28;20116;-64
2021/01/07 10:38:49;;;;;;;11.38;10.40;;;;;;;1.41;66.41;99596.03;10419516;28;20037;-64
2021/01/07 10:43:50;;;;;;;11.60;10.60;;;;;;;1.55;65.80;99599.47;10417849;28;20116;-65
2021/01/07 10:48:52;;;;;;;9.95;9.13;;;;;;;1.57;65.48;99597.72;10418713;28;20065;-65
2021/01/07 10:54:07;;;;;;;10.50;9.60;;;;;;;1.60;65.36;99607.25;10418535;28;20041;-65
2021/01/07 10:59:32;;;;;;;10.25;9.35;;;;;;;1.61;64.85;99602.03;10418840;28;20046;-65
2021/01/07 11:04:44;;;;;;;11.02;10.07;;;;;;;1.39;65.59;99590.84;10418216;28;20045;-62
2021/01/07 11:09:48;;;;;;;10.77;9.88;;;;;;;1.43;64.97;99594.31;10418162;28;20136;-64
2021/01/07 11:14:55;;;;;;;10.48;9.57;;;;;;;1.56;64.72;99585.66;10416994;28;20503;-64
2021/01/07 11:20:01;;;;;;;9.50;8.70;;;;;;;1.41;65.00;99593.44;10417362;28;20072;-65
2021/01/07 11:25:03;;;;;;;10.23;9.32;;;;;;;1.32;65.44;99583.09;10416989;28;20073;-63
2021/01/07 11:30:06;;;;;;;9.65;8.82;;;;;;;1.41;64.99;99588.25;10419510;28;20487;-63
2021/01/07 11:35:08;;;;;;;10.27;9.38;;;;;;;1.47;65.23;99573.59;10425272;28;20049;-65
2021/01/07 11:40:51;;;;;;;9.70;8.90;;;;;;;1.54;64.45;99569.22;10424932;28;20049;-65
2021/01/07 11:46:01;;;;;;;13.50;8.88;;;;;;;1.51;64.40;99575.31;10404711;28;20037;-65
2021/01/07 11:51:06;;;;;;;9.68;8.77;;;;;;;1.54;64.16;99571.81;10425656;28;20041;-63
2021/01/07 11:56:08;;;;;;;9.93;9.13;;;;;;;1.42;64.21;99570.16;10424840;28;20044;-63
2021/01/07 12:01:09;;;;;;;9.60;8.90;;;;;;;1.46;64.17;99571.88;10424447;28;20049;-64
2021/01/07 12:06:16;;;;;;;10.60;9.60;;;;;;;1.61;64.20;99572.69;10423178;28;20049;-63
2021/01/07 12:11:41;;;;;;;12.50;8.77;;;;;;;1.52;64.13;99569.25;10424027;28;20041;-64
2021/01/07 12:16:50;;;;;;;10.48;9.48;;;;;;;1.61;63.93;99575.28;10425247;28;20289;-64
2021/01/07 12:22:07;;;;;;;10.32;9.45;;;;;;;1.76;64.20;99572.63;10423952;28;20045;-65
2021/01/07 12:27:09;;;;;;;9.77;8.98;;;;;;;1.66;63.76;99569.19;10423833;28;20120;-65
2021/01/07 12:32:28;;;;;;;9.60;8.80;;;;;;;1.68;64.07;99571.78;10423631;28;20048;-64
2021/01/07 12:37:39;;;;;;;9.30;8.40;;;;;;;1.81;63.31;99560.50;10424805;28;20558;-64
2021/01/07 12:42:42;;;;;;;8.95;8.15;;;;;;;1.79;63.78;99554.47;10422955;28;20038;-64
2021/01/07 12:47:44;;;;;;;8.45;7.65;;;;;;;1.73;63.53;99552.78;10406377;28;20503;-65
2021/01/07 12:52:45;;;;;;;8.40;7.60;;;;;;;1.65;64.08;99556.25;10423858;28;20077;-64
2021/01/07 12:58:13;;;;;;;10.40;9.02;;;;;;;1.62;63.37;99558.84;10422944;28;20446;-65
2021/01/07 13:03:39;;;;;;;9.25;8.38;;;;;;;1.61;63.18;99554.56;10422218;28;20037;-65
2021/01/07 13:08:45;;;;;;;9.40;8.38;;;;;;;1.68;62.83;99551.94;10422330;28;20038;-65
2021/01/07 13:13:51;;;;;;;7.95;7.22;;;;;;;1.62;62.89;99564.03;10422099;28;20047;-65
2021/01/07 13:18:53;;;;;;;8.47;7.67;;;;;;;1.55;63.30;99564.91;10421907;28;20440;-64
2021/01/07 13:23:55;;;;;;;10.65;8.05;;;;;;;1.50;63.71;99567.50;10421026;28;20292;-64
2021/01/07 13:28:56;;;;;;;8.48;7.78;;;;;;;1.52;63.17;99569.25;10420467;28;20063;-64
2021/01/07 13:33:57;;;;;;;8.23;7.47;;;;;;;1.54;62.79;99568.38;10419053;28;20500;-64
2021/01/07 13:38:59;;;;;;;8.32;7.55;;;;;;;1.55;62.60;99570.97;10420475;28;20124;-64
2021/01/07 13:44:06;;;;;;;7.75;7.05;;;;;;;1.43;62.55;99568.41;10419818;28;20388;-64
2021/01/07 13:49:11;;;;;;;9.15;8.35;;;;;;;1.44;63.25;99573.59;10420481;28;20171;-64
2021/01/07 13:54:14;;;;;;;9.02;8.13;;;;;;;1.46;63.45;99570.97;10416912;28;20099;-64
2021/01/07 13:59:15;;;;;;;9.77;8.88;;;;;;;1.40;63.57;99578.78;10418996;28;20117;-63
2021/01/07 14:04:18;;;;;;;8.98;8.18;;;;;;;1.40;64.00;99577.03;10419559;28;20079;-64
2021/01/07 14:09:26;;;;;;;8.13;7.43;;;;;;;1.50;63.02;99585.66;10419029;28;20037;-63
2021/01/07 14:14:28;;;;;;;8.82;8.05;;;;;;;1.40;63.74;99589.13;10419235;28;20056;-64
2021/01/07 14:19:30;;;;;;;11.30;9.32;;;;;;;1.45;63.20;99585.66;10418560;28;20041;-63
2021/01/07 14:24:33;;;;;;;8.70;7.93;;;;;;;1.36;63.99;99588.28;10419232;28;20550;-64
2021/01/07 14:29:36;;;;;;;16.67;9.52;;;;;;;1.32;64.31;99596.91;10418471;28;20041;-64
2021/01/07 14:34:38;;;;;;;9.10;8.20;;;;;;;1.46;63.39;99597.75;10418777;28;20111;-66
2021/01/07 14:39:40;;;;;;;9.38;8.48;;;;;;;1.33;64.01;99593.47;10416823;28;20034;-69
2021/01/07 14:44:41;;;;;;;9.25;8.35;;;;;;;1.33;64.37;99603.84;10418222;28;20049;-69
2021/01/07 14:49:50;;;;;;;10.10;9.10;;;;;;;1.38;63.60;99601.22;10418247;28;20110;-69
2021/01/07 14:54:53;;;;;;;9.25;8.38;;;;;;;1.25;63.94;99598.66;10418737;28;20046;-69
2021/01/07 15:00:03;;;;;;;9.35;8.55;;;;;;;1.21;64.47;99601.25;10418366;28;20567;-69
2021/01/07 15:05:05;;;;;;;9.27;8.48;;;;;;;1.35;63.46;99598.63;10419934;28;20553;-69
2021/01/07 15:10:08;;;;;;;9.10;8.23;;;;;;;1.26;63.55;99597.78;10419386;28;20491;-68
2021/01/07 15:15:17;;;;;;;9.57;8.50;;;;;;;1.17;64.09;99602.13;10418843;28;20104;-68
2021/01/07 15:20:27;;;;;;;9.88;8.88;;;;;;;1.16;64.07;99608.16;10418632;28;20037;-70
2021/01/07 15:25:37;;;;;;;9.57;8.77;;;;;;;1.17;64.07;99615.06;10417988;28;20067;-69
2021/01/07 15:30:42;;;;;;;9.75;8.85;;;;;;;1.18;63.89;99619.38;10417765;28;20041;-68
2021/01/07 15:35:53;;;;;;;10.48;9.48;;;;;;;1.19;64.12;99618.50;10416490;28;20069;-69
2021/01/07 15:41:31;;;;;;;10.30;9.27;;;;;;;1.25;63.90;99613.31;10399379;28;20046;-69
2021/01/07 15:47:09;;;;;;;8.73;7.93;;;;;;;1.24;62.92;99614.19;10291737;28;20126;-69
2021/01/07 15:52:35;;;;;;;8.50;7.40;;;;;;;1.24;62.39;99609.88;10292938;28;20064;-68
2021/01/07 15:57:55;;;;;;;7.93;6.85;;;;;;;1.05;63.24;99609.88;10290497;28;20436;-70
2021/01/07 16:03:03;;;;;;;7.30;6.50;;;;;;;1.11;63.05;99609.91;10299477;28;20058;-70
2021/01/07 16:08:04;;;;;;;7.80;7.00;;;;;;;1.09;63.08;99606.44;10325580;28;20062;-68
2021/01/07 16:13:22;;;;;;;8.93;7.55;;;;;;;1.20;61.99;99607.28;10277639;28;20165;-70
2021/01/07 16:18:23;;;;;;;7.63;6.93;;;;;;;1.12;62.58;99612.47;10339743;28;20049;-68
2021/01/07 16:23:35;;;;;;;7.20;6.50;;;;;;;1.17;62.40;99607.28;10423723;28;20041;-70
2021/01/07 16:28:37;;;;;;;7.78;7.07;;;;;;;1.10;62.41;99613.31;10423653;28;20041;-69
2021/01/07 16:33:39;;;;;;;9.00;7.00;;;;;;;1.12;62.43;99615.06;10422401;28;20061;-69
2021/01/07 16:38:42;;;;;;;7.93;7.22;;;;;;;1.00;63.39;99617.63;10421835;28;20045;-69
2021/01/07 16:43:43;;;;;;;9.45;8.05;;;;;;;1.15;62.84;99614.19;10421979;28;20096;-68
2021/01/07 16:48:45;;;;;;;8.57;7.78;;;;;;;1.16;62.49;99618.50;10421492;28;20061;-68
2021/01/07 16:53:46;;;;;;;8.07;7.38;;;;;;;1.06;62.61;99617.63;10420606;28;20053;-70
2021/01/07 16:58:54;;;;;;;10.05;8.98;;;;;;;1.07;63.03;99624.56;10416703;28;20049;-69
2021/01/07 17:03:55;;;;;;;12.93;8.02;;;;;;;1.20;62.66;99615.94;10420101;28;20038;-69
2021/01/07 17:08:57;;;;;;;8.63;7.82;;;;;;;1.22;62.62;99613.31;10421049;28;20088;-70
2021/01/07 17:13:58;;;;;;;9.02;8.23;;;;;;;1.19;63.07;99618.50;10421382;28;20088;-70
2021/01/07 17:18:59;;;;;;;9.63;8.77;;;;;;;1.15;63.40;99617.66;10422656;28;20147;-69
2021/01/07 17:24:00;;;;;;;8.50;7.65;;;;;;;0.97;64.12;99618.53;10422935;28;20049;-68
2021/01/07 17:29:17;;;;;;;9.23;8.43;;;;;;;1.03;63.66;99625.41;10420778;28;20045;-69
2021/01/07 17:34:18;;;;;;;9.45;8.50;;;;;;;1.09;63.94;99621.97;10421290;28;20045;-69
2021/01/07 17:39:20;;;;;;;18.13;8.55;;;;;;;1.02;64.07;99621.09;10421747;28;20458;-70
2021/01/07 17:44:21;;;;;;;9.30;8.35;;;;;;;1.09;63.43;99629.72;10420835;28;20080;-69
2021/01/07 17:49:22;;;;;;;9.52;8.73;;;;;;;1.09;63.81;99622.81;10419976;28;20051;-68
2021/01/07 17:54:23;;;;;;;9.52;8.63;;;;;;;0.99;63.83;99616.78;10419622;28;20052;-69
2021/01/07 17:59:25;;;;;;;10.90;9.90;;;;;;;1.13;63.70;99621.09;10421731;28;20116;-69
2021/01/07 18:04:26;;;;;;;11.48;10.32;;;;;;;1.15;63.77;99627.13;10420373;28;20060;-69
2021/01/07 18:09:27;;;;;;;11.10;10.10;;;;;;;1.17;63.76;99622.81;10418397;28;20037;-69
2021/01/07 18:14:28;;;;;;;10.32;9.43;;;;;;;1.19;63.61;99621.09;10418509;28;20048;-69
2021/01/07 18:19:30;;;;;;;10.68;9.75;;;;;;;1.09;64.18;99629.72;10419090;28;20052;-69
2021/01/07 18:24:31;;;;;;;12.82;11.63;;;;;;;1.08;64.05;99622.81;10417352;28;20475;-69
2021/01/07 18:29:32;;;;;;;12.90;11.60;;;;;;;1.02;64.54;99623.69;10417195;28;20084;-68
2021/01/07 18:34:33;;;;;;;12.85;11.63;;;;;;;0.96;65.21;99621.09;10418359;28;20049;-69
2021/01/07 18:39:34;;;;;;;13.80;12.40;;;;;;;1.03;64.86;99624.56;10420909;28;20038;-70
2021/01/07 18:44:35;;;;;;;12.35;11.25;;;;;;;1.05;64.41;99620.22;10423264;28;20125;-69
2021/01/07 18:49:37;;;;;;;11.70;10.70;;;;;;;0.99;64.97;99616.78;10421305;28;20038;-70
2021/01/07 18:54:38;;;;;;;12.75;11.52;;;;;;;0.95;64.96;99624.53;10422320;28;20041;-70
2021/01/07 18:59:39;;;;;;;11.40;10.30;;;;;;;1.04;64.92;99627.13;10422172;28;20124;-70
2021/01/07 19:04:41;;;;;;;12.48;11.27;;;;;;;1.01;65.04;99620.22;10423181;28;20565;-70
2021/01/07 19:09:42;;;;;;;12.80;11.65;;;;;;;1.11;64.53;99615.06;10421050;28;20091;-72
2021/01/07 19:14:43;;;;;;;13.13;11.70;;;;;;;1.03;64.69;99612.47;10420093;28;20419;-70
2021/01/07 19:19:44;;;;;;;13.15;11.07;;;;;;;0.94;65.06;99618.50;10419896;28;20046;-70
2021/01/07 19:24:45;;;;;;;13.27;12.07;;;;;;;1.06;64.98;99615.03;10421090;28;20136;-69
2021/01/07 19:29:47;;;;;;;13.68;12.38;;;;;;;1.00;65.02;99620.22;10420622;28;20095;-69
2021/01/07 19:34:48;;;;;;;12.52;11.32;;;;;;;0.95;64.90;99620.22;10419996;28;20435;-70
2021/01/07 19:39:49;;;;;;;13.07;11.77;;;;;;;0.94;64.77;99618.50;10419968;28;20496;-70
2021/01/07 19:44:50;;;;;;;13.77;12.38;;;;;;;1.05;64.65;99609.88;10420258;28;20116;-70
2021/01/07 19:49:53;;;;;;;12.43;11.25;;;;;;;1.08;64.37;99615.06;10419644;28;20045;-69
2021/01/07 19:54:54;;;;;;;14.57;13.25;;;;;;;0.96;64.87;99615.91;10427197;28;20096;-70
2021/01/07 19:59:55;;;;;;;13.35;12.15;;;;;;;0.96;64.63;99623.69;10427232;28;20104;-70
2021/01/07 20:04:56;;;;;;;13.55;12.20;;;;;;;1.00;64.31;99623.69;10428793;28;20045;-70
2021/01/07 20:09:58;;;;;;;12.32;11.05;;;;;;;1.01;64.84;99619.34;10425741;28;20076;-69
2021/01/07 20:14:59;;;;;;;12.73;11.63;;;;;;;0.98;64.78;99612.47;10425880;28;20466;-71
2021/01/07 20:20:00;;;;;;;14.02;12.63;;;;;;;1.13;64.35;99611.59;10426529;28;20049;-70
2021/01/07 20:25:07;;;;;;;13.65;12.35;;;;;;;0.99;64.28;99624.53;10426843;28;20041;-70
2021/01/07 20:30:09;;;;;;;14.48;13.07;;;;;;;1.04;64.53;99624.53;10427279;28;20132;-71
2021/01/07 20:35:10;;;;;;;13.60;12.30;;;;;;;1.05;64.49;99620.22;10426143;28;20107;-71
2021/01/07 20:40:12;;;;;;;13.50;12.23;;;;;;;0.91;64.82;99622.81;10423295;28;20033;-68
2021/01/07 20:45:13;;;;;;;12.32;11.15;;;;;;;1.07;64.18;99631.47;10422760;28;20503;-67
2021/01/07 20:50:15;;;;;;;13.88;12.68;;;;;;;1.04;64.54;99628.88;10421009;28;20192;-67
2021/01/07 20:55:16;;;;;;;11.95;10.85;;;;;;;1.16;63.74;99621.97;10423255;28;20037;-68
2021/01/07 21:00:18;;;;;;;12.77;11.65;;;;;;;1.01;63.58;99622.81;10420226;28;20080;-67
2021/01/07 21:05:20;;;;;;;12.38;11.25;;;;;;;0.87;64.55;99619.34;10421324;28;20553;-67
2021/01/07 21:10:21;;;;;;;12.35;11.15;;;;;;;0.94;64.55;99617.66;10420947;28;20466;-66
2021/01/07 21:15:22;;;;;;;12.82;11.63;;;;;;;1.06;63.62;99614.19;10421783;28;20072;-68
2021/01/07 21:20:23;;;;;;;13.30;12.10;;;;;;;0.99;63.91;99613.34;10420639;28;20054;-67
2021/01/07 21:25:24;;;;;;;13.93;12.65;;;;;;;0.94;63.91;99622.81;10420684;28;20137;-67
2021/01/07 21:30:27;;;;;;;12.45;11.23;;;;;;;1.05;63.51;99628.84;10420531;28;20080;-67
2021/01/07 21:35:28;;;;;;;12.27;11.18;;;;;;;1.12;63.02;99624.56;10421680;28;20072;-67
2021/01/07 21:40:30;;;;;;;13.00;11.80;;;;;;;1.04;63.19;99626.28;10420361;28;20483;-68
2021/01/07 21:45:31;;;;;;;17.23;11.05;;;;;;;1.05;63.18;99631.44;10420346;28;20103;-68
2021/01/07 21:50:34;;;;;;;12.90;11.20;;;;;;;0.93;63.46;99629.72;10419733;28;20037;-68
2021/01/07 21:55:36;;;;;;;10.77;9.77;;;;;;;0.87;63.69;99629.72;10419844;28;20414;-68
2021/01/07 22:00:38;;;;;;;12.27;11.18;;;;;;;0.93;63.69;99623.66;10419301;28;20045;-67
2021/01/07 22:05:39;;;;;;;12.02;10.93;;;;;;;1.05;63.18;99621.09;10419406;28;20518;-70
2021/01/07 22:10:40;;;;;;;10.55;9.55;;;;;;;0.86;63.48;99625.41;10419906;28;20434;-67
2021/01/07 22:15:41;;;;;;;11.70;10.68;;;;;;;0.96;63.12;99621.94;10418695;28;20080;-66
2021/01/07 22:20:43;;;;;;;12.43;11.32;;;;;;;0.82;63.50;99617.63;10419794;28;20051;-67
2021/01/07 22:25:44;;;;;;;11.30;10.30;;;;;;;0.87;63.41;99619.34;10419255;28;20102;-69
2021/01/07 22:30:46;;;;;;;11.88;10.77;;;;;;;0.85;63.61;99618.50;10418012;28;20081;-68
2021/01/07 22:35:47;;;;;;;11.50;10.43;;;;;;;0.90;63.43;99618.50;10416320;28;20057;-68
2021/01/07 22:40:48;;;;;;;11.20;10.20;;;;;;;0.88;63.77;99613.31;10418679;28;20052;-68
2021/01/07 22:45:49;;;;;;;11.43;10.38;;;;;;;0.87;63.63;99611.59;10417948;28;20053;-68
2021/01/07 22:50:51;;;;;;;11.38;10.43;;;;;;;0.82;63.67;99605.56;10418364;28;20392;-67
2021/01/07 22:55:52;;;;;;;12.93;11.73;;;;;;;0.73;64.52;99605.56;10417029;28;20566;-67
2021/01/07 23:00:53;;;;;;;12.13;10.95;;;;;;;0.64;64.60;99606.41;10417448;28;20120;-68
2021/01/07 23:05:54;;;;;;;11.43;10.43;;;;;;;0.79;64.34;99602.97;10417332;28;20049;-68
2021/01/07 23:10:55;;;;;;;12.52;11.23;;;;;;;0.80;64.77;99606.41;10417952;28;20056;-68
2021/01/07 23:15:57;;;;;;;12.27;11.07;;;;;;;0.68;65.18;99597.78;10415948;28;20511;-68
2021/01/07 23:20:58;;;;;;;12.43;11.23;;;;;;;0.63;65.38;99601.25;10416684;28;20052;-67
2021/01/07 23:26:00;;;;;;;13.75;12.55;;;;;;;0.64;65.31;99596.06;10416895;28;20483;-67